sensor_id;sensor_type;location;lat;lon;timestamp;temperature;humidity
29211;DHT22;16250;49.932;10.980;2022-11-11T00:02:18;5.60;99.90
29211;DHT22;16250;49.932;10.980;2022-11-11T00:04:44;5.70;99.90
29211;DHT22;16250;49.932;10.980;2022-11-11T00:07:09;5.70;99.90
29211;DHT22;16250;49.932;10.980;2022-11-11T00:09:35;5.80;99.90
29211;DHT22;16250;49.932;10.980;2022-11-11T00:12:00;5.80;99.90
29211;DHT22;16250;49.932;10.980;2022-11-11T00:14:26;5.80;99.90
29211;DHT22;16250;49.932;10.980;2022-11-11T00:16:52;5.60;99.90
29211;DHT22;16250;49.932;10.980;2022-11-11T00:19:35;5.60;99.90
29211;DHT22;16250;49.932;10.980;2022-11-11T00:22:22;5.70;99.90
29211;DHT22;16250;49.932;10.980;2022-11-11T00:25:08;5.70;99.90
29211;DHT22;16250;49.932;10.980;2022-11-11T00:27:34;5.80;99.90
29211;DHT22;16250;49.932;10.980;2022-11-11T00:30:00;5.80;99.90
29211;DHT22;16250;49.932;10.980;2022-11-11T00:32:26;5.80;99.90
29211;DHT22;16250;49.932;10.980;2022-11-11T00:34:54;5.80;99.90
29211;DHT22;16250;49.932;10.980;2022-11-11T00:37:39;5.80;99.90
29211;DHT22;16250;49.932;10.980;2022-11-11T00:40:06;5.80;99.90
29211;DHT22;16250;49.932;10.980;2022-11-11T00:42:32;5.90;99.90
29211;DHT22;16250;49.932;10.980;2022-11-11T00:44:57;5.90;99.90
29211;DHT22;16250;49.932;10.980;2022-11-11T00:47:23;5.90;99.90
29211;DHT22;16250;49.932;10.980;2022-11-11T00:50:14;5.90;99.90
29211;DHT22;16250;49.932;10.980;2022-11-11T00:52:59;5.90;99.90
29211;DHT22;16250;49.932;10.980;2022-11-11T00:55:24;5.70;99.90
29211;DHT22;16250;49.932;10.980;2022-11-11T00:57:50;5.40;99.90
29211;DHT22;16250;49.932;10.980;2022-11-11T01:00:15;5.20;99.90
29211;DHT22;16250;49.932;10.980;2022-11-11T01:02:41;5.10;99.90
29211;DHT22;16250;49.932;10.980;2022-11-11T01:05:07;5.10;99.90
29211;DHT22;16250;49.932;10.980;2022-11-11T01:07:32;5.10;99.90
29211;DHT22;16250;49.932;10.980;2022-11-11T01:09:58;5.20;99.90
29211;DHT22;16250;49.932;10.980;2022-11-11T01:12:23;5.10;99.90
29211;DHT22;16250;49.932;10.980;2022-11-11T01:14:49;5.20;99.90
29211;DHT22;16250;49.932;10.980;2022-11-11T01:17:14;5.20;99.90
29211;DHT22;16250;49.932;10.980;2022-11-11T01:19:40;5.10;99.90
29211;DHT22;16250;49.932;10.980;2022-11-11T01:22:05;5.20;99.90
29211;DHT22;16250;49.932;10.980;2022-11-11T01:24:31;5.20;99.90
29211;DHT22;16250;49.932;10.980;2022-11-11T01:26:56;5.30;99.90
29211;DHT22;16250;49.932;10.980;2022-11-11T01:29:22;5.20;99.90
29211;DHT22;16250;49.932;10.980;2022-11-11T01:31:47;5.20;99.90
29211;DHT22;16250;49.932;10.980;2022-11-11T01:34:13;5.10;99.90
29211;DHT22;16250;49.932;10.980;2022-11-11T01:36:38;5.10;99.90
29211;DHT22;16250;49.932;10.980;2022-11-11T01:39:04;5.00;99.90
29211;DHT22;16250;49.932;10.980;2022-11-11T01:41:33;4.90;99.90
29211;DHT22;16250;49.932;10.980;2022-11-11T01:46:59;4.90;99.90
29211;DHT22;16250;49.932;10.980;2022-11-11T01:49:32;5.00;99.90
29211;DHT22;16250;49.932;10.980;2022-11-11T01:54:55;4.90;99.90
29211;DHT22;16250;49.932;10.980;2022-11-11T01:57:24;4.80;99.90
29211;DHT22;16250;49.932;10.980;2022-11-11T02:00:00;4.70;99.90
29211;DHT22;16250;49.932;10.980;2022-11-11T02:02:46;4.60;99.90
29211;DHT22;16250;49.932;10.980;2022-11-11T02:05:14;4.80;99.90
29211;DHT22;16250;49.932;10.980;2022-11-11T02:08:00;4.70;99.90
29211;DHT22;16250;49.932;10.980;2022-11-11T02:10:27;4.60;99.90
29211;DHT22;16250;49.932;10.980;2022-11-11T02:12:54;4.50;99.90
29211;DHT22;16250;49.932;10.980;2022-11-11T02:15:38;4.50;99.90
29211;DHT22;16250;49.932;10.980;2022-11-11T02:18:04;4.60;99.90
29211;DHT22;16250;49.932;10.980;2022-11-11T02:20:35;4.60;99.90
29211;DHT22;16250;49.932;10.980;2022-11-11T02:23:06;4.50;99.90
29211;DHT22;16250;49.932;10.980;2022-11-11T02:25:36;4.60;99.90
29211;DHT22;16250;49.932;10.980;2022-11-11T02:28:05;4.70;99.90
29211;DHT22;16250;49.932;10.980;2022-11-11T02:30:31;4.70;99.90
29211;DHT22;16250;49.932;10.980;2022-11-11T02:32:57;4.70;99.90
29211;DHT22;16250;49.932;10.980;2022-11-11T02:35:31;4.90;99.90
29211;DHT22;16250;49.932;10.980;2022-11-11T02:37:57;4.90;99.90
29211;DHT22;16250;49.932;10.980;2022-11-11T02:40:34;4.80;99.90
29211;DHT22;16250;49.932;10.980;2022-11-11T02:43:01;4.80;99.90
29211;DHT22;16250;49.932;10.980;2022-11-11T02:45:26;4.80;99.90
29211;DHT22;16250;49.932;10.980;2022-11-11T02:47:52;4.70;99.90
29211;DHT22;16250;49.932;10.980;2022-11-11T02:50:17;4.60;99.90
29211;DHT22;16250;49.932;10.980;2022-11-11T02:52:43;4.60;99.90
29211;DHT22;16250;49.932;10.980;2022-11-11T02:55:09;4.60;99.90
29211;DHT22;16250;49.932;10.980;2022-11-11T02:57:35;4.50;99.90
29211;DHT22;16250;49.932;10.980;2022-11-11T03:00:01;4.20;99.90
29211;DHT22;16250;49.932;10.980;2022-11-11T03:02:27;4.00;99.90
29211;DHT22;16250;49.932;10.980;2022-11-11T03:04:54;3.80;99.90
29211;DHT22;16250;49.932;10.980;2022-11-11T03:07:21;3.90;99.90
29211;DHT22;16250;49.932;10.980;2022-11-11T03:09:47;3.90;99.90
29211;DHT22;16250;49.932;10.980;2022-11-11T03:12:12;3.90;99.90
29211;DHT22;16250;49.932;10.980;2022-11-11T03:14:38;3.90;99.90
29211;DHT22;16250;49.932;10.980;2022-11-11T03:17:03;4.00;99.90
29211;DHT22;16250;49.932;10.980;2022-11-11T03:19:47;3.90;99.90
29211;DHT22;16250;49.932;10.980;2022-11-11T03:22:13;4.10;99.90
29211;DHT22;16250;49.932;10.980;2022-11-11T03:24:38;4.10;99.90
29211;DHT22;16250;49.932;10.980;2022-11-11T03:27:23;4.00;99.90
29211;DHT22;16250;49.932;10.980;2022-11-11T03:29:48;3.90;99.90
29211;DHT22;16250;49.932;10.980;2022-11-11T03:32:14;4.00;99.90
29211;DHT22;16250;49.932;10.980;2022-11-11T03:34:39;4.00;99.90
29211;DHT22;16250;49.932;10.980;2022-11-11T03:37:07;4.10;99.90
29211;DHT22;16250;49.932;10.980;2022-11-11T03:39:52;4.10;99.90
29211;DHT22;16250;49.932;10.980;2022-11-11T03:42:17;4.10;99.90
29211;DHT22;16250;49.932;10.980;2022-11-11T03:44:43;4.10;99.90
29211;DHT22;16250;49.932;10.980;2022-11-11T03:47:08;3.90;99.90
29211;DHT22;16250;49.932;10.980;2022-11-11T03:49:34;3.70;99.90
29211;DHT22;16250;49.932;10.980;2022-11-11T03:51:59;3.60;99.90
29211;DHT22;16250;49.932;10.980;2022-11-11T03:54:25;3.70;99.90
29211;DHT22;16250;49.932;10.980;2022-11-11T03:56:51;3.70;99.90
29211;DHT22;16250;49.932;10.980;2022-11-11T03:59:16;3.70;99.90
29211;DHT22;16250;49.932;10.980;2022-11-11T04:01:42;3.80;99.90
29211;DHT22;16250;49.932;10.980;2022-11-11T04:04:25;3.90;99.90
29211;DHT22;16250;49.932;10.980;2022-11-11T04:07:10;4.00;99.90
29211;DHT22;16250;49.932;10.980;2022-11-11T04:09:54;4.10;99.90
29211;DHT22;16250;49.932;10.980;2022-11-11T04:12:39;4.10;99.90
29211;DHT22;16250;49.932;10.980;2022-11-11T04:15:25;4.20;99.90
29211;DHT22;16250;49.932;10.980;2022-11-11T04:18:09;4.20;99.90
29211;DHT22;16250;49.932;10.980;2022-11-11T04:20:35;4.30;99.90
29211;DHT22;16250;49.932;10.980;2022-11-11T04:23:19;4.30;99.90
29211;DHT22;16250;49.932;10.980;2022-11-11T04:25:45;4.30;99.90
29211;DHT22;16250;49.932;10.980;2022-11-11T04:28:13;4.40;99.90
29211;DHT22;16250;49.932;10.980;2022-11-11T04:30:58;4.20;99.90
29211;DHT22;16250;49.932;10.980;2022-11-11T04:33:23;3.90;99.90
29211;DHT22;16250;49.932;10.980;2022-11-11T04:35:49;3.90;99.90
29211;DHT22;16250;49.932;10.980;2022-11-11T04:38:15;3.70;99.90
29211;DHT22;16250;49.932;10.980;2022-11-11T04:40:59;3.80;99.90
29211;DHT22;16250;49.932;10.980;2022-11-11T04:43:30;3.90;99.90
29211;DHT22;16250;49.932;10.980;2022-11-11T04:45:59;3.90;99.90
29211;DHT22;16250;49.932;10.980;2022-11-11T04:48:25;3.90;99.90
29211;DHT22;16250;49.932;10.980;2022-11-11T04:50:51;3.90;99.90
29211;DHT22;16250;49.932;10.980;2022-11-11T04:53:17;3.80;99.90
29211;DHT22;16250;49.932;10.980;2022-11-11T04:55:43;3.80;99.90
29211;DHT22;16250;49.932;10.980;2022-11-11T04:58:30;3.80;99.90
29211;DHT22;16250;49.932;10.980;2022-11-11T05:00:56;3.80;99.90
29211;DHT22;16250;49.932;10.980;2022-11-11T05:03:22;3.70;99.90
29211;DHT22;16250;49.932;10.980;2022-11-11T05:08:40;3.60;99.90
29211;DHT22;16250;49.932;10.980;2022-11-11T05:11:26;3.40;99.90
29211;DHT22;16250;49.932;10.980;2022-11-11T05:13:53;3.30;99.90
29211;DHT22;16250;49.932;10.980;2022-11-11T05:16:42;3.30;99.90
29211;DHT22;16250;49.932;10.980;2022-11-11T05:19:26;3.40;99.90
29211;DHT22;16250;49.932;10.980;2022-11-11T05:24:44;3.40;99.90
29211;DHT22;16250;49.932;10.980;2022-11-11T05:27:28;3.40;99.90
29211;DHT22;16250;49.932;10.980;2022-11-11T05:29:54;3.50;99.90
29211;DHT22;16250;49.932;10.980;2022-11-11T05:32:20;3.40;99.90
29211;DHT22;16250;49.932;10.980;2022-11-11T05:34:46;3.40;99.90
29211;DHT22;16250;49.932;10.980;2022-11-11T05:37:12;3.40;99.90
29211;DHT22;16250;49.932;10.980;2022-11-11T05:39:38;3.30;99.90
29211;DHT22;16250;49.932;10.980;2022-11-11T05:42:04;3.20;99.90
29211;DHT22;16250;49.932;10.980;2022-11-11T05:44:29;3.20;99.90
29211;DHT22;16250;49.932;10.980;2022-11-11T05:46:55;3.20;99.90
29211;DHT22;16250;49.932;10.980;2022-11-11T05:49:21;3.20;99.90
29211;DHT22;16250;49.932;10.980;2022-11-11T05:51:47;3.20;99.90
29211;DHT22;16250;49.932;10.980;2022-11-11T05:54:13;3.30;99.90
29211;DHT22;16250;49.932;10.980;2022-11-11T05:56:39;3.40;99.90
29211;DHT22;16250;49.932;10.980;2022-11-11T05:59:06;3.40;99.90
29211;DHT22;16250;49.932;10.980;2022-11-11T06:01:32;3.20;99.90
29211;DHT22;16250;49.932;10.980;2022-11-11T06:03:58;3.00;99.90
29211;DHT22;16250;49.932;10.980;2022-11-11T06:06:24;2.90;99.90
29211;DHT22;16250;49.932;10.980;2022-11-11T06:08:50;3.10;99.90
29211;DHT22;16250;49.932;10.980;2022-11-11T06:11:16;3.10;99.90
29211;DHT22;16250;49.932;10.980;2022-11-11T06:13:42;3.00;99.90
29211;DHT22;16250;49.932;10.980;2022-11-11T06:16:07;3.10;99.90
29211;DHT22;16250;49.932;10.980;2022-11-11T06:18:33;3.30;99.90
29211;DHT22;16250;49.932;10.980;2022-11-11T06:20:59;3.30;99.90
29211;DHT22;16250;49.932;10.980;2022-11-11T06:23:26;3.10;99.90
29211;DHT22;16250;49.932;10.980;2022-11-11T06:25:52;3.00;99.90
29211;DHT22;16250;49.932;10.980;2022-11-11T06:28:37;3.00;99.90
29211;DHT22;16250;49.932;10.980;2022-11-11T06:31:03;3.10;99.90
29211;DHT22;16250;49.932;10.980;2022-11-11T06:33:29;3.10;99.90
29211;DHT22;16250;49.932;10.980;2022-11-11T06:35:55;3.20;99.90
29211;DHT22;16250;49.932;10.980;2022-11-11T06:38:20;3.30;99.90
29211;DHT22;16250;49.932;10.980;2022-11-11T06:40:47;3.40;99.90
29211;DHT22;16250;49.932;10.980;2022-11-11T06:43:12;3.40;99.90
29211;DHT22;16250;49.932;10.980;2022-11-11T06:45:38;3.40;99.90
29211;DHT22;16250;49.932;10.980;2022-11-11T06:48:04;3.30;99.90
29211;DHT22;16250;49.932;10.980;2022-11-11T06:50:34;3.30;99.90
29211;DHT22;16250;49.932;10.980;2022-11-11T06:53:07;3.50;99.90
29211;DHT22;16250;49.932;10.980;2022-11-11T06:55:34;3.40;99.90
29211;DHT22;16250;49.932;10.980;2022-11-11T06:58:06;3.40;99.90
29211;DHT22;16250;49.932;10.980;2022-11-11T07:00:33;3.40;99.90
29211;DHT22;16250;49.932;10.980;2022-11-11T07:03:00;3.40;99.90
29211;DHT22;16250;49.932;10.980;2022-11-11T07:05:25;3.40;99.90
29211;DHT22;16250;49.932;10.980;2022-11-11T07:07:51;3.50;99.90
29211;DHT22;16250;49.932;10.980;2022-11-11T07:10:17;3.60;99.90
29211;DHT22;16250;49.932;10.980;2022-11-11T07:12:43;3.70;99.90
29211;DHT22;16250;49.932;10.980;2022-11-11T07:15:09;3.90;99.90
29211;DHT22;16250;49.932;10.980;2022-11-11T07:17:35;3.80;99.90
29211;DHT22;16250;49.932;10.980;2022-11-11T07:20:00;3.70;99.90
29211;DHT22;16250;49.932;10.980;2022-11-11T07:22:26;3.60;99.90
29211;DHT22;16250;49.932;10.980;2022-11-11T07:24:51;3.40;99.90
29211;DHT22;16250;49.932;10.980;2022-11-11T07:27:17;3.30;99.90
29211;DHT22;16250;49.932;10.980;2022-11-11T07:29:42;3.30;99.90
29211;DHT22;16250;49.932;10.980;2022-11-11T07:32:08;3.60;99.90
29211;DHT22;16250;49.932;10.980;2022-11-11T07:34:33;3.70;99.90
29211;DHT22;16250;49.932;10.980;2022-11-11T07:36:59;3.70;99.90
29211;DHT22;16250;49.932;10.980;2022-11-11T07:39:24;3.50;99.90
29211;DHT22;16250;49.932;10.980;2022-11-11T07:41:50;3.50;99.90
29211;DHT22;16250;49.932;10.980;2022-11-11T07:44:15;3.60;99.90
29211;DHT22;16250;49.932;10.980;2022-11-11T07:46:41;3.60;99.90
29211;DHT22;16250;49.932;10.980;2022-11-11T07:49:07;3.50;99.90
29211;DHT22;16250;49.932;10.980;2022-11-11T07:51:32;3.40;99.90
29211;DHT22;16250;49.932;10.980;2022-11-11T07:53:58;3.40;99.90
29211;DHT22;16250;49.932;10.980;2022-11-11T07:56:23;3.40;99.90
29211;DHT22;16250;49.932;10.980;2022-11-11T07:58:49;3.50;99.90
29211;DHT22;16250;49.932;10.980;2022-11-11T08:01:14;3.50;99.90
29211;DHT22;16250;49.932;10.980;2022-11-11T08:03:40;3.60;99.90
29211;DHT22;16250;49.932;10.980;2022-11-11T08:06:18;3.70;99.90
29211;DHT22;16250;49.932;10.980;2022-11-11T08:08:44;3.70;99.90
29211;DHT22;16250;49.932;10.980;2022-11-11T08:11:10;3.70;99.90
29211;DHT22;16250;49.932;10.980;2022-11-11T08:13:35;3.80;99.90
29211;DHT22;16250;49.932;10.980;2022-11-11T08:16:09;3.80;99.90
29211;DHT22;16250;49.932;10.980;2022-11-11T08:18:35;4.00;99.90
29211;DHT22;16250;49.932;10.980;2022-11-11T08:21:02;4.10;99.90
29211;DHT22;16250;49.932;10.980;2022-11-11T08:23:28;4.30;99.90
29211;DHT22;16250;49.932;10.980;2022-11-11T08:26:04;4.50;99.90
29211;DHT22;16250;49.932;10.980;2022-11-11T08:28:32;4.60;99.90
29211;DHT22;16250;49.932;10.980;2022-11-11T08:30:58;4.70;99.90
29211;DHT22;16250;49.932;10.980;2022-11-11T08:33:24;4.80;99.90
29211;DHT22;16250;49.932;10.980;2022-11-11T08:35:50;4.70;99.90
29211;DHT22;16250;49.932;10.980;2022-11-11T08:38:17;4.60;99.90
29211;DHT22;16250;49.932;10.980;2022-11-11T08:40:43;4.40;99.90
29211;DHT22;16250;49.932;10.980;2022-11-11T08:43:09;4.30;99.90
29211;DHT22;16250;49.932;10.980;2022-11-11T08:45:35;4.40;99.90
29211;DHT22;16250;49.932;10.980;2022-11-11T08:48:00;4.50;99.90
29211;DHT22;16250;49.932;10.980;2022-11-11T08:50:26;4.60;99.90
29211;DHT22;16250;49.932;10.980;2022-11-11T08:52:52;4.70;99.90
29211;DHT22;16250;49.932;10.980;2022-11-11T08:55:18;4.70;99.90
29211;DHT22;16250;49.932;10.980;2022-11-11T08:57:44;4.80;99.90
29211;DHT22;16250;49.932;10.980;2022-11-11T09:00:11;4.90;99.90
29211;DHT22;16250;49.932;10.980;2022-11-11T09:02:37;4.80;99.90
29211;DHT22;16250;49.932;10.980;2022-11-11T09:05:04;4.90;99.90
29211;DHT22;16250;49.932;10.980;2022-11-11T09:07:31;5.10;99.90
29211;DHT22;16250;49.932;10.980;2022-11-11T09:09:57;5.10;99.90
29211;DHT22;16250;49.932;10.980;2022-11-11T09:12:23;5.10;99.90
29211;DHT22;16250;49.932;10.980;2022-11-11T09:14:48;5.10;99.90
29211;DHT22;16250;49.932;10.980;2022-11-11T09:17:15;5.10;99.90
29211;DHT22;16250;49.932;10.980;2022-11-11T09:19:40;5.10;99.90
29211;DHT22;16250;49.932;10.980;2022-11-11T09:22:06;5.20;99.90
29211;DHT22;16250;49.932;10.980;2022-11-11T09:24:31;5.10;99.90
29211;DHT22;16250;49.932;10.980;2022-11-11T09:26:57;5.30;99.90
29211;DHT22;16250;49.932;10.980;2022-11-11T09:29:22;5.50;99.90
29211;DHT22;16250;49.932;10.980;2022-11-11T09:31:48;5.60;99.90
29211;DHT22;16250;49.932;10.980;2022-11-11T09:34:13;5.60;99.90
29211;DHT22;16250;49.932;10.980;2022-11-11T09:36:39;5.70;99.90
29211;DHT22;16250;49.932;10.980;2022-11-11T09:39:05;5.80;99.90
29211;DHT22;16250;49.932;10.980;2022-11-11T09:47:19;6.00;99.90
29211;DHT22;16250;49.932;10.980;2022-11-11T09:50:21;6.10;99.90
29211;DHT22;16250;49.932;10.980;2022-11-11T09:52:59;6.10;99.90
29211;DHT22;16250;49.932;10.980;2022-11-11T09:55:51;6.20;99.90
29211;DHT22;16250;49.932;10.980;2022-11-11T09:58:24;6.30;99.90
29211;DHT22;16250;49.932;10.980;2022-11-11T10:01:12;6.40;99.90
29211;DHT22;16250;49.932;10.980;2022-11-11T10:03:45;6.30;99.90
29211;DHT22;16250;49.932;10.980;2022-11-11T10:06:16;6.40;99.90
29211;DHT22;16250;49.932;10.980;2022-11-11T10:08:58;6.50;99.90
29211;DHT22;16250;49.932;10.980;2022-11-11T10:14:01;6.80;99.90
29211;DHT22;16250;49.932;10.980;2022-11-11T10:17:04;7.00;99.90
29211;DHT22;16250;49.932;10.980;2022-11-11T10:22:33;7.30;99.90
29211;DHT22;16250;49.932;10.980;2022-11-11T10:27:42;7.30;99.90
29211;DHT22;16250;49.932;10.980;2022-11-11T10:30:23;7.40;99.90
29211;DHT22;16250;49.932;10.980;2022-11-11T10:33:21;7.50;99.90
29211;DHT22;16250;49.932;10.980;2022-11-11T10:35:49;7.70;99.90
29211;DHT22;16250;49.932;10.980;2022-11-11T10:38:57;7.90;99.90
29211;DHT22;16250;49.932;10.980;2022-11-11T10:41:25;8.00;99.90
29211;DHT22;16250;49.932;10.980;2022-11-11T10:43:51;8.10;99.90
29211;DHT22;16250;49.932;10.980;2022-11-11T10:46:31;8.20;99.90
29211;DHT22;16250;49.932;10.980;2022-11-11T10:49:07;8.30;99.90
29211;DHT22;16250;49.932;10.980;2022-11-11T10:52:01;8.40;99.90
29211;DHT22;16250;49.932;10.980;2022-11-11T10:54:39;8.50;99.90
29211;DHT22;16250;49.932;10.980;2022-11-11T10:57:23;8.50;99.90
29211;DHT22;16250;49.932;10.980;2022-11-11T11:00:16;8.40;99.90
29211;DHT22;16250;49.932;10.980;2022-11-11T11:03:32;8.30;99.90
29211;DHT22;16250;49.932;10.980;2022-11-11T11:06:33;8.40;99.90
29211;DHT22;16250;49.932;10.980;2022-11-11T11:08:44;8.40;99.90
29211;DHT22;16250;49.932;10.980;2022-11-11T11:11:20;8.30;99.90
29211;DHT22;16250;49.932;10.980;2022-11-11T11:16:42;8.10;99.90
29211;DHT22;16250;49.932;10.980;2022-11-11T11:19:26;8.20;99.90
29211;DHT22;16250;49.932;10.980;2022-11-11T11:21:54;8.30;99.90
29211;DHT22;16250;49.932;10.980;2022-11-11T11:24:25;8.40;99.90
29211;DHT22;16250;49.932;10.980;2022-11-11T11:26:53;8.50;99.90
29211;DHT22;16250;49.932;10.980;2022-11-11T11:32:28;8.60;99.90
29211;DHT22;16250;49.932;10.980;2022-11-11T11:34:55;8.90;99.90
29211;DHT22;16250;49.932;10.980;2022-11-11T11:37:23;9.00;99.90
29211;DHT22;16250;49.932;10.980;2022-11-11T11:39:59;9.10;99.90
29211;DHT22;16250;49.932;10.980;2022-11-11T11:42:37;9.20;99.90
29211;DHT22;16250;49.932;10.980;2022-11-11T11:53:55;9.20;99.90
29211;DHT22;16250;49.932;10.980;2022-11-11T11:56:43;9.40;99.90
29211;DHT22;16250;49.932;10.980;2022-11-11T12:07:49;10.00;99.90
29211;DHT22;16250;49.932;10.980;2022-11-11T12:10:29;10.20;99.90
29211;DHT22;16250;49.932;10.980;2022-11-11T12:13:20;10.30;99.90
29211;DHT22;16250;49.932;10.980;2022-11-11T12:15:51;10.60;99.90
29211;DHT22;16250;49.932;10.980;2022-11-11T12:21:16;10.90;99.90
29211;DHT22;16250;49.932;10.980;2022-11-11T12:29:36;11.20;99.90
29211;DHT22;16250;49.932;10.980;2022-11-11T12:41:04;11.30;99.90
29211;DHT22;16250;49.932;10.980;2022-11-11T12:54:57;11.40;99.90
29211;DHT22;16250;49.932;10.980;2022-11-11T13:00:29;11.30;99.90
29211;DHT22;16250;49.932;10.980;2022-11-11T13:03:03;11.30;99.90
29211;DHT22;16250;49.932;10.980;2022-11-11T13:08:18;11.50;99.90
29211;DHT22;16250;49.932;10.980;2022-11-11T13:13:56;11.70;99.90
29211;DHT22;16250;49.932;10.980;2022-11-11T13:16:25;11.70;99.90
29211;DHT22;16250;49.932;10.980;2022-11-11T13:19:10;11.60;99.90
29211;DHT22;16250;49.932;10.980;2022-11-11T13:21:48;11.60;99.90
29211;DHT22;16250;49.932;10.980;2022-11-11T13:24:20;11.60;99.90
29211;DHT22;16250;49.932;10.980;2022-11-11T13:26:52;11.50;99.90
29211;DHT22;16250;49.932;10.980;2022-11-11T13:32:11;11.90;99.90
29211;DHT22;16250;49.932;10.980;2022-11-11T13:34:39;11.60;99.90
29211;DHT22;16250;49.932;10.980;2022-11-11T13:37:07;11.80;99.90
29211;DHT22;16250;49.932;10.980;2022-11-11T13:39:40;11.80;99.90
29211;DHT22;16250;49.932;10.980;2022-11-11T13:42:11;11.80;99.90
29211;DHT22;16250;49.932;10.980;2022-11-11T13:44:48;11.90;99.90
29211;DHT22;16250;49.932;10.980;2022-11-11T13:47:19;11.80;99.90
29211;DHT22;16250;49.932;10.980;2022-11-11T13:50:00;11.80;99.90
29211;DHT22;16250;49.932;10.980;2022-11-11T13:52:38;12.00;99.90
29211;DHT22;16250;49.932;10.980;2022-11-11T13:55:25;12.20;99.90
29211;DHT22;16250;49.932;10.980;2022-11-11T13:57:53;12.30;99.90
29211;DHT22;16250;49.932;10.980;2022-11-11T14:02:46;12.40;99.90
29211;DHT22;16250;49.932;10.980;2022-11-11T14:12:48;12.50;99.90
29211;DHT22;16250;49.932;10.980;2022-11-11T14:18:02;12.30;99.90
29211;DHT22;16250;49.932;10.980;2022-11-11T14:20:39;12.40;99.90
29211;DHT22;16250;49.932;10.980;2022-11-11T14:28:33;12.30;99.90
29211;DHT22;16250;49.932;10.980;2022-11-11T14:36:39;12.10;99.90
29211;DHT22;16250;49.932;10.980;2022-11-11T14:39:32;12.10;99.90
29211;DHT22;16250;49.932;10.980;2022-11-11T14:41:59;12.10;99.90
29211;DHT22;16250;49.932;10.980;2022-11-11T14:55:16;11.80;99.90
29211;DHT22;16250;49.932;10.980;2022-11-11T14:58:12;11.70;99.90
29211;DHT22;16250;49.932;10.980;2022-11-11T15:01:03;11.40;99.90
29211;DHT22;16250;49.932;10.980;2022-11-11T15:03:43;11.30;99.90
29211;DHT22;16250;49.932;10.980;2022-11-11T15:12:19;10.90;99.90
29211;DHT22;16250;49.932;10.980;2022-11-11T15:15:20;10.80;99.90
29211;DHT22;16250;49.932;10.980;2022-11-11T15:18:05;10.70;99.90
29211;DHT22;16250;49.932;10.980;2022-11-11T15:20:56;10.50;99.90
29211;DHT22;16250;49.932;10.980;2022-11-11T15:23:30;10.40;99.90
29211;DHT22;16250;49.932;10.980;2022-11-11T15:34:29;10.00;99.90
29211;DHT22;16250;49.932;10.980;2022-11-11T15:37:04;9.90;99.90
29211;DHT22;16250;49.932;10.980;2022-11-11T15:39:42;9.80;99.90
29211;DHT22;16250;49.932;10.980;2022-11-11T15:42:31;9.80;99.90
29211;DHT22;16250;49.932;10.980;2022-11-11T15:45:02;9.60;99.90
29211;DHT22;16250;49.932;10.980;2022-11-11T15:47:34;9.50;99.90
29211;DHT22;16250;49.932;10.980;2022-11-11T15:50:00;9.40;99.90
29211;DHT22;16250;49.932;10.980;2022-11-11T15:52:31;9.30;99.90
29211;DHT22;16250;49.932;10.980;2022-11-11T15:54:59;9.20;99.90
29211;DHT22;16250;49.932;10.980;2022-11-11T15:57:33;9.10;99.90
29211;DHT22;16250;49.932;10.980;2022-11-11T16:00:01;9.00;99.90
29211;DHT22;16250;49.932;10.980;2022-11-11T16:02:33;9.00;99.90
29211;DHT22;16250;49.932;10.980;2022-11-11T16:05:26;8.90;99.90
29211;DHT22;16250;49.932;10.980;2022-11-11T16:07:55;9.00;99.90
29211;DHT22;16250;49.932;10.980;2022-11-11T16:10:33;8.90;99.90
29211;DHT22;16250;49.932;10.980;2022-11-11T16:16:01;8.60;99.90
29211;DHT22;16250;49.932;10.980;2022-11-11T16:18:35;8.60;99.90
29211;DHT22;16250;49.932;10.980;2022-11-11T16:23:34;8.40;99.90
29211;DHT22;16250;49.932;10.980;2022-11-11T16:26:00;8.40;99.90
29211;DHT22;16250;49.932;10.980;2022-11-11T16:28:36;8.40;99.90
29211;DHT22;16250;49.932;10.980;2022-11-11T16:33:59;8.50;99.90
29211;DHT22;16250;49.932;10.980;2022-11-11T16:36:25;8.60;99.90
29211;DHT22;16250;49.932;10.980;2022-11-11T16:38:51;8.60;99.90
29211;DHT22;16250;49.932;10.980;2022-11-11T16:41:28;8.60;99.90
29211;DHT22;16250;49.932;10.980;2022-11-11T16:43:56;8.60;99.90
29211;DHT22;16250;49.932;10.980;2022-11-11T16:49:36;8.50;99.90
29211;DHT22;16250;49.932;10.980;2022-11-11T16:52:12;8.40;99.90
29211;DHT22;16250;49.932;10.980;2022-11-11T16:54:51;8.20;99.90
29211;DHT22;16250;49.932;10.980;2022-11-11T16:57:22;8.10;99.90
29211;DHT22;16250;49.932;10.980;2022-11-11T16:59:52;8.00;99.90
29211;DHT22;16250;49.932;10.980;2022-11-11T17:02:21;8.10;99.90
29211;DHT22;16250;49.932;10.980;2022-11-11T17:04:47;8.00;99.90
29211;DHT22;16250;49.932;10.980;2022-11-11T17:07:33;7.90;99.90
29211;DHT22;16250;49.932;10.980;2022-11-11T17:10:15;7.90;99.90
29211;DHT22;16250;49.932;10.980;2022-11-11T17:12:41;7.80;99.90
29211;DHT22;16250;49.932;10.980;2022-11-11T17:15:10;7.80;99.90
29211;DHT22;16250;49.932;10.980;2022-11-11T17:17:38;7.80;99.90
29211;DHT22;16250;49.932;10.980;2022-11-11T17:20:07;7.80;99.90
29211;DHT22;16250;49.932;10.980;2022-11-11T17:22:33;7.80;99.90
29211;DHT22;16250;49.932;10.980;2022-11-11T17:24:59;7.80;99.90
29211;DHT22;16250;49.932;10.980;2022-11-11T17:27:28;7.70;99.90
29211;DHT22;16250;49.932;10.980;2022-11-11T17:29:55;7.60;99.90
29211;DHT22;16250;49.932;10.980;2022-11-11T17:32:20;7.50;99.90
29211;DHT22;16250;49.932;10.980;2022-11-11T17:34:46;7.50;99.90
29211;DHT22;16250;49.932;10.980;2022-11-11T17:37:11;7.50;99.90
29211;DHT22;16250;49.932;10.980;2022-11-11T17:39:37;7.40;99.90
29211;DHT22;16250;49.932;10.980;2022-11-11T17:42:08;7.40;99.90
29211;DHT22;16250;49.932;10.980;2022-11-11T17:44:33;7.40;99.90
29211;DHT22;16250;49.932;10.980;2022-11-11T17:46:59;7.30;99.90
29211;DHT22;16250;49.932;10.980;2022-11-11T17:49:24;7.20;99.90
29211;DHT22;16250;49.932;10.980;2022-11-11T17:51:50;7.10;99.90
29211;DHT22;16250;49.932;10.980;2022-11-11T17:54:15;7.10;99.90
29211;DHT22;16250;49.932;10.980;2022-11-11T17:56:41;7.20;99.90
29211;DHT22;16250;49.932;10.980;2022-11-11T17:59:07;7.10;99.90
29211;DHT22;16250;49.932;10.980;2022-11-11T18:01:32;7.00;99.90
29211;DHT22;16250;49.932;10.980;2022-11-11T18:03:58;7.00;99.90
29211;DHT22;16250;49.932;10.980;2022-11-11T18:06:24;7.00;99.90
29211;DHT22;16250;49.932;10.980;2022-11-11T18:08:51;7.00;99.90
29211;DHT22;16250;49.932;10.980;2022-11-11T18:11:17;6.90;99.90
29211;DHT22;16250;49.932;10.980;2022-11-11T18:13:42;6.90;99.90
29211;DHT22;16250;49.932;10.980;2022-11-11T18:16:19;6.80;99.90
29211;DHT22;16250;49.932;10.980;2022-11-11T18:18:44;6.90;99.90
29211;DHT22;16250;49.932;10.980;2022-11-11T18:21:11;7.00;99.90
29211;DHT22;16250;49.932;10.980;2022-11-11T18:23:38;7.10;99.90